Time;durP1;ratioP1;P1;durP2;ratioP2;P2;SDS_P1;SDS_P2;PMS_P1;PMS_P2;Temp;Humidity;BMP_temperature;BMP_pressure;BME280_temperature;BME280_humidity;BME280_pressure;Samples;Min_cycle;Max_cycle;Signal;HPM_P1;HPM_P2
2022/07/16 00:02:34;;;;;;;3.00;2.50;;;;;;;24.83;51.52;99334.03;5051794;28;20238;-73
2022/07/16 00:05:01;;;;;;;2.63;2.43;;;;;;;24.80;51.72;99331.91;5051817;28;20286;-73
2022/07/16 00:07:29;;;;;;;6.10;2.73;;;;;;;24.80;51.66;99335.41;5051610;28;20192;-73
2022/07/16 00:09:55;;;;;;;3.50;2.87;;;;;;;24.82;52.12;99333.22;5051622;28;20675;-73
2022/07/16 00:12:22;;;;;;;2.57;2.37;;;;;;;24.82;51.70;99333.22;5052021;28;20193;-73
2022/07/16 00:14:49;;;;;;;5.20;2.60;;;;;;;24.85;51.88;99331.81;5051836;28;20200;-73
2022/07/16 00:17:15;;;;;;;2.53;2.40;;;;;;;24.80;51.89;99329.97;5051755;28;20254;-74
2022/07/16 00:19:41;;;;;;;4.03;2.37;;;;;;;24.63;52.47;99337.81;5051499;28;20239;-73
2022/07/16 00:22:08;;;;;;;3.47;2.20;;;;;;;24.57;52.56;99336.25;5052175;28;20204;-73
2022/07/16 00:24:36;;;;;;;6.17;2.50;;;;;;;24.62;52.81;99333.47;5055614;28;20289;-73
2022/07/16 00:27:03;;;;;;;3.73;2.27;;;;;;;24.69;52.56;99336.66;5055899;28;20196;-73
2022/07/16 00:29:30;;;;;;;3.33;2.60;;;;;;;24.76;52.23;99341.72;5055564;28;20200;-73
2022/07/16 00:31:57;;;;;;;3.10;2.23;;;;;;;24.81;52.12;99342.47;5055246;28;20200;-73
2022/07/16 00:34:24;;;;;;;6.27;2.20;;;;;;;24.96;51.86;99339.53;5055790;28;20215;-73
2022/07/16 00:36:51;;;;;;;2.73;2.40;;;;;;;25.12;51.43;99336.63;5055531;28;20204;-74
2022/07/16 00:39:19;;;;;;;4.80;2.40;;;;;;;25.30;51.65;99343.97;5055467;28;20266;-74
2022/07/16 00:41:48;;;;;;;3.07;2.20;;;;;;;25.38;50.60;99337.88;5054958;28;20719;-75
2022/07/16 00:44:16;;;;;;;3.80;2.37;;;;;;;25.48;50.66;99340.44;5055554;28;20282;-74
2022/07/16 00:46:44;;;;;;;3.80;2.17;;;;;;;25.54;49.98;99345.50;5054991;28;20197;-72
2022/07/16 00:49:12;;;;;;;2.43;2.23;;;;;;;25.56;50.27;99347.94;5055332;28;20197;-77
2022/07/16 00:51:43;;;;;;;5.50;2.70;;;;;;;25.44;50.79;99347.59;5054868;28;20573;-77
2022/07/16 00:54:10;;;;;;;2.70;2.50;;;;;;;25.36;50.80;99343.63;5054982;28;20200;-78
2022/07/16 00:56:37;;;;;;;4.57;2.53;;;;;;;25.37;50.08;99350.69;5055108;28;20660;-77
2022/07/16 00:59:05;;;;;;;2.70;2.50;;;;;;;25.39;49.99;99342.22;5055151;28;20253;-80
2022/07/16 01:01:33;;;;;;;2.77;2.67;;;;;;;25.37;50.09;99345.25;5055014;28;20243;-78
2022/07/16 01:04:00;;;;;;;3.10;2.10;;;;;;;25.34;50.07;99345.81;5054631;28;20283;-81
2022/07/16 01:06:29;;;;;;;3.63;2.53;;;;;;;25.26;50.86;99349.19;5054552;28;20204;-78
2022/07/16 01:08:56;;;;;;;4.83;2.80;;;;;;;25.18;51.06;99347.13;5054883;28;20196;-80
2022/07/16 01:11:22;;;;;;;2.80;2.57;;;;;;;25.12;51.25;99352.94;5054420;28;20196;-77
2022/07/16 01:13:51;;;;;;;2.43;2.23;;;;;;;25.07;51.47;99345.63;5054501;28;20204;-78
2022/07/16 01:16:20;;;;;;;2.33;2.20;;;;;;;25.02;51.33;99347.66;5054784;28;20192;-80
2022/07/16 01:18:47;;;;;;;3.43;2.30;;;;;;;25.03;51.61;99353.59;5054728;28;20196;-80
2022/07/16 01:21:16;;;;;;;2.30;2.20;;;;;;;25.02;51.34;99347.66;5054842;28;20292;-78
2022/07/16 01:23:45;;;;;;;2.33;2.13;;;;;;;25.12;51.89;99342.88;5054516;28;20224;-78
2022/07/16 01:26:12;;;;;;;2.03;1.93;;;;;;;25.21;51.43;99340.28;5054455;28;20254;-80
2022/07/16 01:28:39;;;;;;;3.07;2.60;;;;;;;25.31;50.81;99340.97;5054285;28;20258;-79
2022/07/16 01:31:06;;;;;;;2.67;2.47;;;;;;;25.40;50.47;99336.50;5054511;28;20207;-80
2022/07/16 01:33:34;;;;;;;3.87;2.30;;;;;;;25.45;49.78;99332.88;5053708;28;20200;-79
2022/07/16 01:36:02;;;;;;;4.57;2.40;;;;;;;25.41;50.13;99340.00;5053958;28;20734;-77
2022/07/16 01:38:30;;;;;;;5.50;2.30;;;;;;;25.34;50.13;99334.13;5054245;28;20631;-77
2022/07/16 01:40:58;;;;;;;4.50;2.00;;;;;;;25.26;50.73;99332.84;5054588;28;20197;-76
2022/07/16 01:43:26;;;;;;;3.47;2.37;;;;;;;25.27;50.82;99322.81;5054682;28;20281;-77
2022/07/16 01:45:55;;;;;;;2.60;2.47;;;;;;;25.35;50.65;99333.84;5054452;28;20199;-76
2022/07/16 01:48:22;;;;;;;3.13;2.70;;;;;;;25.35;50.56;99327.59;5054169;28;20258;-77
2022/07/16 01:50:50;;;;;;;7.77;2.80;;;;;;;25.37;50.68;99330.81;5053789;28;20626;-77
2022/07/16 01:53:17;;;;;;;13.40;3.03;;;;;;;25.38;50.75;99329.72;5054110;28;20258;-77
2022/07/16 01:55:44;;;;;;;4.60;2.50;;;;;;;25.41;49.91;99327.22;5053632;28;20193;-77
2022/07/16 01:58:14;;;;;;;2.50;2.03;;;;;;;25.40;50.30;99322.06;5053667;28;20665;-77
2022/07/16 02:00:43;;;;;;;3.90;3.00;;;;;;;25.34;50.65;99325.97;5053736;28;20193;-77
2022/07/16 02:03:10;;;;;;;4.67;2.70;;;;;;;25.24;51.26;99335.09;5054026;28;20196;-81
2022/07/16 02:05:37;;;;;;;3.70;2.10;;;;;;;25.13;51.66;99330.06;5053705;28;20228;-78
2022/07/16 02:08:05;;;;;;;4.90;2.57;;;;;;;25.02;51.67;99328.63;5053880;28;20200;-78
2022/07/16 02:10:32;;;;;;;4.80;2.73;;;;;;;24.91;52.33;99336.09;5053468;28;20204;-79
2022/07/16 02:12:59;;;;;;;2.60;2.40;;;;;;;24.84;52.73;99341.09;5054041;28;20273;-79
2022/07/16 02:15:27;;;;;;;4.30;2.33;;;;;;;24.81;52.59;99330.78;5053444;28;20567;-79
2022/07/16 02:17:54;;;;;;;4.20;2.20;;;;;;;24.87;52.64;99335.88;5053299;28;20664;-79
2022/07/16 02:20:21;;;;;;;2.73;2.53;;;;;;;24.95;52.49;99321.63;5053593;28;20195;-78
2022/07/16 02:22:47;;;;;;;2.50;2.30;;;;;;;25.07;51.91;99328.53;5053560;28;20200;-77
2022/07/16 02:25:15;;;;;;;2.50;2.30;;;;;;;25.14;51.69;99329.00;5053130;28;20708;-78
2022/07/16 02:28:05;;;;;;;4.50;2.20;;;;;;;25.21;51.03;99335.66;5053115;28;20257;-78
2022/07/16 02:30:30;;;;;;;4.27;2.07;;;;;;;25.24;51.00;99334.25;5053023;28;20202;-78
2022/07/16 02:32:57;;;;;;;2.47;2.27;;;;;;;25.26;49.87;99332.84;5053070;28;20193;-78
2022/07/16 02:35:24;;;;;;;2.80;2.30;;;;;;;25.26;50.18;99330.13;5052937;28;20623;-78
2022/07/16 02:37:50;;;;;;;2.50;2.30;;;;;;;25.30;50.27;99338.53;5053265;28;20188;-81
2022/07/16 02:40:17;;;;;;;6.73;2.60;;;;;;;25.32;49.75;99333.63;5053408;28;20204;-78
2022/07/16 02:42:44;;;;;;;2.70;2.60;;;;;;;25.24;50.15;99328.81;5053268;28;20224;-79
2022/07/16 02:45:11;;;;;;;4.50;2.53;;;;;;;25.37;49.76;99336.25;5049807;28;20227;-77
2022/07/16 02:47:40;;;;;;;2.20;2.10;;;;;;;25.39;50.23;99336.78;5050984;28;20314;-78
2022/07/16 02:50:08;;;;;;;3.57;2.40;;;;;;;25.38;49.94;99343.31;5050594;28;20239;-77
2022/07/16 02:52:35;;;;;;;5.13;2.40;;;;;;;25.37;49.69;99338.97;5047819;28;20189;-74
2022/07/16 02:55:02;;;;;;;2.57;2.30;;;;;;;25.29;49.45;99329.59;5050014;28;20204;-78
2022/07/16 02:57:29;;;;;;;2.60;2.40;;;;;;;25.28;50.13;99348.91;5052542;28;20197;-78
2022/07/16 02:59:56;;;;;;;4.23;2.47;;;;;;;25.17;49.71;99340.06;5052416;28;20257;-78
2022/07/16 03:02:23;;;;;;;2.47;2.27;;;;;;;25.06;50.10;99344.03;5052595;28;20196;-78
2022/07/16 03:04:51;;;;;;;4.80;2.53;;;;;;;24.93;51.07;99345.59;5052010;28;20281;-78
2022/07/16 03:07:18;;;;;;;6.00;3.10;;;;;;;24.83;51.40;99350.34;5052457;28;20624;-79
2022/07/16 03:09:45;;;;;;;2.70;2.50;;;;;;;24.79;51.58;99352.81;5052354;28;20195;-77
2022/07/16 03:12:11;;;;;;;4.17;2.50;;;;;;;24.77;51.79;99346.06;5052041;28;20618;-78
2022/07/16 03:14:38;;;;;;;7.23;2.97;;;;;;;24.82;51.66;99348.72;5051984;28;20200;-78
2022/07/16 03:17:05;;;;;;;3.63;2.00;;;;;;;24.85;51.61;99353.56;5052390;28;20192;-78
2022/07/16 03:19:31;;;;;;;4.37;2.30;;;;;;;24.82;51.96;99354.97;5052175;28;20277;-79
2022/07/16 03:22:00;;;;;;;7.00;2.70;;;;;;;24.81;51.63;99357.97;5052101;28;20196;-78
2022/07/16 03:24:27;;;;;;;2.00;1.90;;;;;;;24.90;51.69;99361.66;5051693;28;20226;-78
2022/07/16 03:26:53;;;;;;;2.50;2.40;;;;;;;25.00;51.56;99361.53;5051778;28;20199;-78
2022/07/16 03:29:20;;;;;;;5.67;2.80;;;;;;;25.08;50.33;99368.22;5052219;28;20195;-78
2022/07/16 03:31:47;;;;;;;3.80;2.77;;;;;;;25.20;50.04;99365.84;5052018;28;20193;-78
2022/07/16 03:34:13;;;;;;;3.50;2.23;;;;;;;25.27;49.75;99355.44;5052012;28;20200;-78
2022/07/16 03:36:40;;;;;;;2.50;2.30;;;;;;;25.39;49.31;99364.78;5051919;28;20261;-77
2022/07/16 03:39:08;;;;;;;2.50;2.30;;;;;;;25.44;48.92;99358.47;5052192;28;20195;-78
2022/07/16 03:41:38;;;;;;;3.23;2.60;;;;;;;25.47;48.76;99366.03;5051953;28;20254;-78
2022/07/16 03:44:08;;;;;;;2.50;2.30;;;;;;;25.55;48.30;99368.09;5052032;28;20228;-79
2022/07/16 03:46:35;;;;;;;4.90;2.80;;;;;;;25.68;47.88;99372.78;5052353;28;20215;-78
2022/07/16 03:49:03;;;;;;;2.63;2.50;;;;;;;25.72;47.76;99373.78;5051716;28;20196;-78
2022/07/16 03:51:30;;;;;;;2.80;2.47;;;;;;;25.73;47.27;99372.69;5051607;28;20197;-80
2022/07/16 03:53:57;;;;;;;2.80;2.50;;;;;;;25.68;48.00;99372.78;5051629;28;20197;-77
2022/07/16 03:56:25;;;;;;;3.27;2.70;;;;;;;25.63;47.79;99370.94;5052334;28;20192;-77
2022/07/16 03:58:52;;;;;;;2.40;2.30;;;;;;;25.65;47.57;99378.78;5058164;28;20657;-77
2022/07/16 04:01:19;;;;;;;2.97;2.67;;;;;;;25.70;47.40;99376.00;5058296;28;20200;-77
2022/07/16 04:03:46;;;;;;;4.73;3.20;;;;;;;25.72;47.74;99373.78;5058553;28;20196;-76
2022/07/16 04:06:13;;;;;;;2.83;2.50;;;;;;;25.81;47.87;99377.44;5058453;28;20227;-77
2022/07/16 04:08:40;;;;;;;3.93;2.60;;;;;;;25.95;47.61;99383.75;5058323;28;20634;-77
2022/07/16 04:11:06;;;;;;;4.87;3.00;;;;;;;26.06;46.58;99385.19;5058476;28;20196;-77
2022/07/16 04:13:38;;;;;;;3.40;2.80;;;;;;;26.52;45.24;99388.69;5058411;28;20196;-79
2022/07/16 04:16:05;;;;;;;3.17;2.87;;;;;;;27.50;43.13;99397.00;5058083;28;20651;-78
2022/07/16 04:18:32;;;;;;;6.30;2.87;;;;;;;28.39;40.56;99401.31;5058242;28;20660;-79
2022/07/16 04:20:59;;;;;;;6.43;2.70;;;;;;;29.21;38.54;99407.75;5058442;28;20196;-78
2022/07/16 04:23:26;;;;;;;3.43;2.40;;;;;;;29.85;37.12;99404.09;5058595;28;20262;-77
2022/07/16 04:25:52;;;;;;;3.87;2.53;;;;;;;30.47;35.89;99404.44;5058149;28;20278;-77
2022/07/16 04:28:19;;;;;;;5.93;2.40;;;;;;;31.02;34.65;99407.91;5058481;28;20253;-77
2022/07/16 04:30:47;;;;;;;5.33;2.47;;;;;;;31.38;33.86;99406.25;5058364;28;20196;-77
2022/07/16 04:33:14;;;;;;;3.00;2.43;;;;;;;32.01;32.46;99416.06;5057988;28;20250;-76
2022/07/16 04:35:40;;;;;;;2.50;2.30;;;;;;;32.67;31.68;99426.66;5058062;28;20266;-76
2022/07/16 04:38:07;;;;;;;2.43;2.30;;;;;;;33.09;31.12;99433.59;5057751;28;20246;-76
2022/07/16 04:40:34;;;;;;;2.60;2.40;;;;;;;33.35;30.54;99432.44;5058076;28;20223;-77
2022/07/16 04:43:01;;;;;;;2.40;2.20;;;;;;;33.68;30.17;99441.31;5057942;28;20644;-77
2022/07/16 04:45:27;;;;;;;2.33;2.20;;;;;;;33.88;29.89;99438.38;5057785;28;20666;-76
2022/07/16 04:47:56;;;;;;;2.37;2.17;;;;;;;34.20;29.77;99434.56;5058104;28;20275;-75
2022/07/16 04:50:22;;;;;;;3.93;2.47;;;;;;;34.24;29.44;99442.91;5058122;28;20196;-75
2022/07/16 04:52:49;;;;;;;3.00;2.40;;;;;;;34.30;29.32;99434.06;5057686;28;20670;-76
2022/07/16 04:55:16;;;;;;;2.50;2.30;;;;;;;34.37;29.16;99439.00;5058475;28;20204;-76
2022/07/16 04:57:43;;;;;;;4.20;2.08;;;;;;;34.58;28.98;99445.84;5057827;28;20250;-76
2022/07/16 05:00:10;;;;;;;7.70;2.15;;;;;;;34.73;28.53;99438.72;5058041;28;20196;-76
2022/07/16 05:05:23;;;;;;;2.53;2.28;;;;;;;35.12;28.59;99454.34;5057860;28;20242;-76
2022/07/16 05:07:50;;;;;;;2.10;1.90;;;;;;;35.52;27.63;99454.91;5058058;28;20250;-75
2022/07/16 05:10:17;;;;;;;2.17;1.92;;;;;;;35.59;27.73;99455.84;5053943;28;20197;-75
2022/07/16 05:12:44;;;;;;;3.47;2.25;;;;;;;35.67;27.72;99459.56;5054688;28;20664;-76
2022/07/16 05:15:11;;;;;;;2.72;1.92;;;;;;;35.74;27.35;99454.19;5054826;28;20287;-75
2022/07/16 05:17:37;;;;;;;5.32;2.33;;;;;;;36.03;27.29;99446.16;5054991;28;20196;-75
2022/07/16 05:20:05;;;;;;;7.90;2.70;;;;;;;36.59;26.45;99452.75;5054455;28;20192;-76
2022/07/16 05:22:33;;;;;;;28.13;4.80;;;;;;;36.60;26.27;99451.59;5054420;28;20193;-75
2022/07/16 05:25:00;;;;;;;7.00;2.58;;;;;;;37.01;25.35;99449.94;5054604;28;20224;-77
2022/07/16 05:27:27;;;;;;;13.00;2.97;;;;;;;36.69;25.63;99446.66;5054375;28;20241;-76
2022/07/16 05:29:53;;;;;;;2.70;2.10;;;;;;;36.68;25.38;99447.00;5054165;28;20660;-77
2022/07/16 05:32:20;;;;;;;3.70;2.58;;;;;;;36.78;25.56;99454.69;5054467;28;20257;-77
2022/07/16 05:34:47;;;;;;;6.03;2.65;;;;;;;36.68;25.60;99455.31;5054197;28;20727;-78
2022/07/16 05:37:13;;;;;;;5.47;2.45;;;;;;;36.42;26.18;99458.00;5055022;28;20196;-78
2022/07/16 05:39:41;;;;;;;5.35;2.45;;;;;;;36.49;26.19;99452.56;5054633;28;20192;-78
2022/07/16 05:42:08;;;;;;;4.43;2.22;;;;;;;36.43;27.10;99454.03;5053602;28;20232;-79
2022/07/16 05:44:35;;;;;;;4.28;2.65;;;;;;;36.53;26.93;99459.78;5052623;28;20193;-80
2022/07/16 05:47:02;;;;;;;3.58;2.58;;;;;;;36.69;26.23;99451.38;5054794;28;20197;-80
2022/07/16 05:49:28;;;;;;;4.43;2.65;;;;;;;36.28;27.03;99460.47;5054274;28;20695;-78
2022/07/16 05:51:55;;;;;;;4.70;2.35;;;;;;;36.02;27.08;99454.81;5054342;28;20192;-79
2022/07/16 05:54:22;;;;;;;3.65;2.33;;;;;;;35.85;27.94;99447.72;5053947;28;20200;-79
2022/07/16 05:56:50;;;;;;;8.52;2.50;;;;;;;36.03;27.52;99448.09;5053289;28;20266;-71
2022/07/16 05:59:17;;;;;;;5.43;2.50;;;;;;;36.06;27.72;99439.06;5051019;28;20193;-71
2022/07/16 06:01:44;;;;;;;6.10;2.60;;;;;;;35.96;27.69;99450.72;5046763;28;20767;-72
2022/07/16 06:04:10;;;;;;;5.28;2.60;;;;;;;35.86;27.93;99440.25;5048190;28;20196;-72
2022/07/16 06:06:37;;;;;;;2.70;2.50;;;;;;;35.97;27.98;99436.53;5049292;28;20212;-73
2022/07/16 06:09:04;;;;;;;6.30;2.50;;;;;;;36.12;27.51;99437.59;5051306;28;20282;-74
2022/07/16 06:11:31;;;;;;;3.67;2.60;;;;;;;36.20;27.64;99442.09;5050548;28;20184;-74
2022/07/16 06:13:59;;;;;;;1.85;1.70;;;;;;;36.42;27.80;99435.84;5052927;28;20185;-73
2022/07/16 06:16:25;;;;;;;5.10;2.58;;;;;;;36.53;27.43;99437.63;5052431;28;20258;-73
2022/07/16 06:18:52;;;;;;;6.90;2.63;;;;;;;36.62;26.97;99429.88;5052390;28;20192;-74
2022/07/16 06:21:19;;;;;;;3.85;1.98;;;;;;;36.65;26.90;99428.31;5046421;28;20192;-74
2022/07/16 06:23:46;;;;;;;9.35;2.60;;;;;;;36.59;27.42;99424.28;5046399;28;20626;-72
2022/07/16 06:26:13;;;;;;;5.00;2.53;;;;;;;36.70;27.54;99425.31;5048984;28;20216;-71
2022/07/16 06:28:40;;;;;;;2.83;2.15;;;;;;;36.63;26.87;99423.16;5050208;28;20188;-72
2022/07/16 06:31:08;;;;;;;3.50;1.90;;;;;;;36.37;26.78;99427.81;5049328;28;20238;-72
2022/07/16 06:33:35;;;;;;;3.47;1.70;;;;;;;36.35;26.26;99408.84;5047090;28;20623;-71
2022/07/16 06:36:01;;;;;;;4.07;1.80;;;;;;;36.50;25.92;99410.66;5051748;28;20193;-71
2022/07/16 06:38:28;;;;;;;1.70;1.58;;;;;;;36.26;26.46;99408.25;5049901;28;20723;-70
2022/07/16 06:40:55;;;;;;;2.70;1.55;;;;;;;36.38;25.74;99412.84;5051746;28;20193;-70
2022/07/16 06:43:21;;;;;;;2.28;1.63;;;;;;;36.52;24.52;99413.88;5051522;28;20228;-72
2022/07/16 06:45:48;;;;;;;2.15;1.95;;;;;;;36.46;25.40;99409.03;5052269;28;20658;-73
2022/07/16 06:48:16;;;;;;;1.50;1.40;;;;;;;36.60;25.16;99400.94;5052195;28;20282;-72
2022/07/16 06:50:43;;;;;;;16.10;2.50;;;;;;;36.77;25.11;99412.34;5052796;28;20192;-80
2022/07/16 06:53:10;;;;;;;4.47;1.90;;;;;;;37.16;24.63;99408.22;5052805;28;20633;-81
2022/07/16 06:55:36;;;;;;;6.05;1.92;;;;;;;37.37;24.31;99409.72;5052149;28;20657;-81
2022/07/16 06:58:03;;;;;;;2.75;2.00;;;;;;;37.50;24.35;99402.75;5050427;28;20657;-79
2022/07/16 07:00:30;;;;;;;3.45;1.75;;;;;;;37.76;24.40;99411.06;5050760;28;20200;-79
2022/07/16 07:02:57;;;;;;;4.93;1.77;;;;;;;37.99;23.76;99412.50;5050208;28;20200;-80
2022/07/16 07:05:25;;;;;;;2.05;1.85;;;;;;;38.05;23.35;99408.25;5052530;28;20216;-81
2022/07/16 07:07:52;;;;;;;2.10;1.58;;;;;;;38.05;23.41;99411.00;5052332;28;20192;-79
2022/07/16 07:10:19;;;;;;;3.15;1.60;;;;;;;37.83;23.91;99411.94;5052002;28;20633;-81
2022/07/16 07:12:46;;;;;;;1.60;1.50;;;;;;;37.79;23.03;99410.31;5052905;28;20282;-80
2022/07/16 07:15:13;;;;;;;4.60;1.63;;;;;;;37.53;23.55;99408.38;5052488;28;20279;-79
2022/07/16 07:17:40;;;;;;;4.25;1.40;;;;;;;37.34;23.34;99405.72;5052023;28;20201;-81
2022/07/16 07:20:07;;;;;;;2.47;1.73;;;;;;;36.84;23.36;99408.91;5051883;28;20665;-81
2022/07/16 07:22:35;;;;;;;8.82;1.77;;;;;;;36.78;23.72;99399.28;5052157;28;20250;-82
2022/07/16 07:25:02;;;;;;;2.97;1.20;;;;;;;36.76;23.74;99379.50;5052147;28;20617;-81
2022/07/16 07:27:29;;;;;;;2.05;1.50;;;;;;;36.82;24.03;99402.91;5051748;28;20777;-80
2022/07/16 07:29:55;;;;;;;4.53;1.60;;;;;;;37.05;24.16;99398.16;5051762;28;20657;-80
2022/07/16 07:32:22;;;;;;;5.15;1.73;;;;;;;37.38;23.48;99401.03;5051209;28;20188;-80
2022/07/16 07:34:49;;;;;;;2.63;1.48;;;;;;;37.51;22.80;99399.59;5051781;28;20669;-80
2022/07/16 07:37:16;;;;;;;4.78;1.52;;;;;;;37.65;23.50;99402.63;5051863;28;20668;-80
2022/07/16 07:39:44;;;;;;;2.78;1.30;;;;;;;37.44;23.20;99405.09;5051799;28;20572;-80
2022/07/16 07:42:10;;;;;;;1.90;1.50;;;;;;;37.78;23.77;99415.03;5051683;28;20653;-80
2022/07/16 07:44:37;;;;;;;1.58;1.48;;;;;;;38.01;22.72;99407.41;5051656;28;20604;-80
2022/07/16 07:47:04;;;;;;;2.78;1.30;;;;;;;37.64;22.97;99414.84;5051875;28;20278;-80
2022/07/16 07:49:31;;;;;;;1.92;1.48;;;;;;;37.58;23.56;99416.34;5051550;28;20189;-80
2022/07/16 07:51:58;;;;;;;7.22;1.50;;;;;;;37.71;23.08;99417.72;5051818;28;20618;-80
2022/07/16 07:54:24;;;;;;;1.13;1.05;;;;;;;37.28;23.00;99414.75;5051811;28;20188;-80
2022/07/16 07:56:52;;;;;;;2.90;1.25;;;;;;;37.52;23.29;99401.22;5051554;28;20680;-80
2022/07/16 07:59:19;;;;;;;1.65;1.55;;;;;;;37.72;23.32;99416.53;5051506;28;20680;-81
2022/07/16 08:01:46;;;;;;;1.88;1.70;;;;;;;37.89;22.97;99412.41;5051667;28;20196;-79
2022/07/16 08:04:13;;;;;;;1.33;1.23;;;;;;;37.54;23.17;99412.72;5051768;28;20197;-79
2022/07/16 08:06:39;;;;;;;1.58;1.48;;;;;;;37.63;23.29;99413.25;5051787;28;20274;-79
2022/07/16 08:09:06;;;;;;;3.00;1.40;;;;;;;37.39;23.63;99412.94;5051442;28;20727;-79
2022/07/16 08:11:33;;;;;;;6.38;1.90;;;;;;;37.40;23.54;99409.78;5051482;28;20189;-80
2022/07/16 08:14:01;;;;;;;3.40;1.40;;;;;;;37.26;23.37;99403.25;5051770;28;20200;-80
2022/07/16 08:16:28;;;;;;;6.63;1.35;;;;;;;37.37;23.33;99401.41;5051821;28;20259;-79
2022/07/16 08:18:54;;;;;;;4.47;1.42;;;;;;;37.23;23.39;99388.94;5051814;28;20196;-79
2022/07/16 08:21:22;;;;;;;2.53;1.33;;;;;;;37.41;23.25;99389.19;5051645;28;20201;-79
2022/07/16 08:26:38;;;;;;;1.40;1.30;;;;;;;37.79;22.90;99397.22;5013234;28;20222;-79
2022/07/16 08:29:07;;;;;;;3.35;1.42;;;;;;;37.83;23.24;99383.38;5051380;28;20235;-79
2022/07/16 08:31:33;;;;;;;5.60;1.90;;;;;;;37.71;24.01;99392.75;5051161;28;20726;-80
2022/07/16 08:34:00;;;;;;;3.65;1.35;;;;;;;37.54;23.75;99387.78;5051105;28;20193;-79
2022/07/16 08:36:28;;;;;;;2.70;1.30;;;;;;;37.45;22.83;99390.03;5051688;28;20200;-80
2022/07/16 08:38:54;;;;;;;4.28;1.50;;;;;;;37.67;23.61;99391.16;5051234;28;20578;-79
2022/07/16 08:41:21;;;;;;;2.15;1.60;;;;;;;37.71;23.25;99387.22;5051288;28;20197;-80
2022/07/16 08:43:49;;;;;;;5.05;1.70;;;;;;;37.80;22.85;99384.94;5051948;28;20290;-80
2022/07/16 08:46:21;;;;;;;1.38;1.35;;;;;;;37.68;23.20;99385.19;5055380;28;20216;-79
2022/07/16 08:48:48;;;;;;;2.05;1.45;;;;;;;37.83;23.16;99384.19;5055254;28;20192;-75
2022/07/16 08:51:21;;;;;;;2.00;1.60;;;;;;;37.99;23.55;99376.44;5054996;28;20201;-78
2022/07/16 08:53:49;;;;;;;3.90;1.67;;;;;;;37.98;22.77;99374.84;5055265;28;20246;-75
2022/07/16 08:56:17;;;;;;;1.73;1.50;;;;;;;38.02;23.17;99381.25;5055118;28;20656;-78
2022/07/16 08:58:44;;;;;;;3.72;1.60;;;;;;;38.17;22.46;99374.66;5054962;28;20188;-78
2022/07/16 09:01:11;;;;;;;1.30;1.20;;;;;;;37.89;22.23;99371.59;5054772;28;20197;-76
2022/07/16 09:03:39;;;;;;;1.33;1.20;;;;;;;38.20;22.61;99376.69;5054676;28;20188;-78
2022/07/16 09:06:06;;;;;;;2.17;1.42;;;;;;;38.57;22.61;99371.13;5050534;28;20220;-76
2022/07/16 09:08:33;;;;;;;3.20;1.35;;;;;;;38.82;22.18;99380.44;5055319;28;20196;-76
2022/07/16 09:11:17;;;;;;;4.00;1.77;;;;;;;38.85;21.22;99380.44;5053747;28;20561;-76
2022/07/16 09:14:00;;;;;;;1.58;1.45;;;;;;;38.63;22.59;99373.16;5054241;28;20666;-76
2022/07/16 09:16:31;;;;;;;1.55;1.45;;;;;;;38.93;22.15;99379.34;5053329;28;20234;-75
2022/07/16 09:19:10;;;;;;;2.90;1.90;;;;;;;38.92;21.76;99385.28;5052741;28;20624;-74
2022/07/16 09:21:38;;;;;;;3.15;1.52;;;;;;;38.82;21.97;99372.88;5054632;28;20184;-69
2022/07/16 09:24:05;;;;;;;3.05;1.75;;;;;;;38.80;21.36;99375.25;5054783;28;20188;-68
2022/07/16 09:26:32;;;;;;;4.20;1.55;;;;;;;38.66;21.10;99371.59;5053928;28;20315;-69
2022/07/16 09:29:03;;;;;;;1.75;1.38;;;;;;;38.69;22.09;99368.81;5053717;28;20195;-69
2022/07/16 09:31:36;;;;;;;3.42;1.30;;;;;;;39.14;20.39;99370.34;5054084;28;20189;-69
2022/07/16 09:34:06;;;;;;;6.60;1.60;;;;;;;38.95;21.17;99371.41;5054221;28;20275;-70
2022/07/16 09:36:33;;;;;;;3.10;1.50;;;;;;;39.23;20.80;99363.25;5053605;28;20204;-69
2022/07/16 09:39:00;;;;;;;4.53;1.63;;;;;;;39.09;21.59;99365.97;5053754;28;20635;-70
2022/07/16 09:41:27;;;;;;;3.35;1.30;;;;;;;39.17;21.10;99364.81;5053923;28;20192;-69
2022/07/16 09:43:54;;;;;;;1.58;1.48;;;;;;;39.29;20.78;99367.25;5054600;28;20309;-69
2022/07/16 09:46:24;;;;;;;7.10;1.67;;;;;;;39.40;20.87;99362.56;5053632;28;20224;-69
2022/07/16 09:48:52;;;;;;;11.23;2.10;;;;;;;39.33;21.21;99362.56;5053766;28;20193;-71
2022/07/16 09:51:22;;;;;;;2.53;1.75;;;;;;;39.35;20.95;99362.94;5053716;28;20196;-73
2022/07/16 09:53:50;;;;;;;5.20;2.00;;;;;;;39.27;20.34;99360.50;5053561;28;20189;-73
2022/07/16 09:56:19;;;;;;;3.97;1.75;;;;;;;38.97;21.82;99363.50;5052820;28;20734;-74
2022/07/16 09:58:48;;;;;;;14.05;3.55;;;;;;;38.91;21.53;99361.47;5053471;28;20657;-72
2022/07/16 10:01:16;;;;;;;6.88;1.83;;;;;;;39.06;21.56;99358.38;5053340;28;20192;-72
2022/07/16 10:03:43;;;;;;;1.80;1.70;;;;;;;39.00;21.00;99348.84;5053953;28;20283;-71
2022/07/16 10:06:10;;;;;;;2.28;1.50;;;;;;;38.80;20.82;99347.47;5052809;28;20201;-71
2022/07/16 10:08:39;;;;;;;6.75;1.85;;;;;;;38.97;20.98;99352.38;5053199;28;20723;-68
2022/07/16 10:11:06;;;;;;;1.75;1.63;;;;;;;39.04;21.44;99348.84;5053388;28;20189;-69
2022/07/16 10:13:35;;;;;;;1.85;1.75;;;;;;;39.24;21.28;99339.03;5053148;28;20236;-69
2022/07/16 10:16:03;;;;;;;4.15;1.75;;;;;;;39.32;21.36;99347.00;5052971;28;20196;-69
2022/07/16 10:18:47;;;;;;;2.60;2.13;;;;;;;39.31;21.29;99348.19;5053815;28;20197;-68
2022/07/16 10:21:16;;;;;;;3.50;1.50;;;;;;;39.44;20.73;99346.69;5053088;28;20572;-70
2022/07/16 10:23:47;;;;;;;3.13;1.38;;;;;;;39.66;20.15;99337.25;5052904;28;20645;-69
2022/07/16 10:26:17;;;;;;;1.83;1.73;;;;;;;39.72;20.03;99341.22;5052797;28;20660;-69
2022/07/16 10:28:46;;;;;;;2.78;1.67;;;;;;;39.82;20.58;99331.34;5053634;28;20207;-67
2022/07/16 10:31:39;;;;;;;7.90;2.60;;;;;;;39.62;21.02;99341.19;5052984;28;20201;-67
2022/07/16 10:34:32;;;;;;;4.22;1.63;;;;;;;39.63;20.05;99329.69;5053107;28;20239;-69
2022/07/16 10:37:00;;;;;;;4.15;1.63;;;;;;;39.61;20.17;99334.88;5052882;28;20624;-68
2022/07/16 10:39:29;;;;;;;43.17;6.03;;;;;;;39.48;20.24;99335.59;5052617;28;20258;-70
2022/07/16 10:41:57;;;;;;;5.65;2.30;;;;;;;39.23;20.02;99332.66;5052623;28;20193;-69
2022/07/16 10:44:27;;;;;;;2.33;1.50;;;;;;;38.85;20.99;99324.06;5052650;28;20189;-69
2022/07/16 10:46:55;;;;;;;2.03;1.85;;;;;;;39.04;20.49;99321.06;5052688;28;20220;-68
2022/07/16 10:49:23;;;;;;;1.75;1.33;;;;;;;39.23;20.61;99312.44;5052953;28;20631;-67
2022/07/16 10:51:57;;;;;;;10.98;2.63;;;;;;;39.17;20.57;99306.44;5052892;28;20192;-69
2022/07/16 10:54:25;;;;;;;1.20;1.10;;;;;;;38.79;21.15;99309.78;5052961;28;20192;-68
2022/07/16 10:56:54;;;;;;;3.03;1.52;;;;;;;38.75;21.02;99306.19;5052567;28;20196;-68
2022/07/16 10:59:22;;;;;;;2.50;1.40;;;;;;;38.95;20.58;99301.94;5052582;28;20726;-67
2022/07/16 11:01:51;;;;;;;3.00;1.60;;;;;;;39.24;20.63;99298.16;5052540;28;20195;-67
2022/07/16 11:04:27;;;;;;;1.33;1.17;;;;;;;39.54;19.75;99298.66;5052998;28;20200;-69
2022/07/16 11:06:54;;;;;;;1.52;1.30;;;;;;;39.44;20.35;99299.41;5051568;28;20235;-70
2022/07/16 11:09:25;;;;;;;2.92;1.35;;;;;;;39.15;20.34;99305.25;5052415;28;20192;-71
2022/07/16 11:11:55;;;;;;;4.60;1.52;;;;;;;39.01;21.17;99303.19;5052467;28;20200;-70
2022/07/16 11:14:29;;;;;;;1.98;1.65;;;;;;;39.02;19.96;99299.22;5052663;28;20638;-68
2022/07/16 11:16:56;;;;;;;2.65;1.42;;;;;;;39.31;20.02;99295.38;5051986;28;20274;-70
2022/07/16 11:19:24;;;;;;;6.57;2.00;;;;;;;39.46;19.82;99294.28;5051548;28;20559;-68
2022/07/16 11:21:55;;;;;;;2.88;1.23;;;;;;;39.63;19.23;99292.72;5049286;28;20266;-67
2022/07/16 11:24:22;;;;;;;3.05;1.70;;;;;;;39.49;20.75;99287.94;5051882;28;20193;-67
2022/07/16 11:26:51;;;;;;;9.48;1.70;;;;;;;39.73;20.17;99292.75;5051801;28;20224;-68
2022/07/16 11:29:21;;;;;;;3.10;1.50;;;;;;;39.67;20.41;99287.97;5051645;28;20735;-67
2022/07/16 11:31:49;;;;;;;5.43;1.77;;;;;;;39.28;20.41;99290.63;5049587;28;20226;-68
2022/07/16 11:34:18;;;;;;;2.80;1.40;;;;;;;38.64;21.05;99291.41;5051103;28;20200;-68
2022/07/16 11:36:48;;;;;;;3.80;1.77;;;;;;;38.95;20.54;99296.38;5052178;28;20204;-67
2022/07/16 11:39:16;;;;;;;2.70;1.60;;;;;;;39.10;21.00;99286.94;5052229;28;20295;-68
2022/07/16 11:41:45;;;;;;;2.40;1.92;;;;;;;38.97;21.30;99285.69;5051547;28;20726;-68
2022/07/16 11:44:13;;;;;;;2.75;1.40;;;;;;;38.80;21.20;99285.56;5051894;28;20669;-68